sensor_id;sensor_type;location;lat;lon;timestamp;pressure;altitude;pressure_sealevel;temperature;humidity
6528;BME280;64597;42.664;23.256;2023-11-21T00:00:17;94413.25;;;5.58;67.99
6528;BME280;64597;42.664;23.256;2023-11-21T00:02:44;94403.63;;;5.59;67.92
6528;BME280;64597;42.664;23.256;2023-11-21T00:05:12;94408.69;;;5.47;68.68
6528;BME280;64597;42.664;23.256;2023-11-21T00:07:40;94406.44;;;5.57;68.53
6528;BME280;64597;42.664;23.256;2023-11-21T00:10:06;94382.72;;;5.46;68.17
6528;BME280;64597;42.664;23.256;2023-11-21T00:12:32;94403.22;;;5.62;68.09
6528;BME280;64597;42.664;23.256;2023-11-21T00:14:58;94402.03;;;5.51;67.93
6528;BME280;64597;42.664;23.256;2023-11-21T00:17:24;94418.72;;;5.50;68.06
6528;BME280;64597;42.664;23.256;2023-11-21T00:19:51;94408.25;;;5.50;68.41
6528;BME280;64597;42.664;23.256;2023-11-21T00:22:17;94414.09;;;5.52;68.20
6528;BME280;64597;42.664;23.256;2023-11-21T00:24:43;94405.66;;;5.50;68.45
6528;BME280;64597;42.664;23.256;2023-11-21T00:27:09;94408.47;;;5.49;68.06
6528;BME280;64597;42.664;23.256;2023-11-21T00:29:34;94407.66;;;5.48;68.80
6528;BME280;64597;42.664;23.256;2023-11-21T00:32:00;94390.44;;;5.34;68.51
6528;BME280;64597;42.664;23.256;2023-11-21T00:34:25;94398.84;;;5.49;68.66
6528;BME280;64597;42.664;23.256;2023-11-21T00:36:50;94367.53;;;5.30;68.08
6528;BME280;64597;42.664;23.256;2023-11-21T00:39:16;94401.22;;;5.51;68.19
6528;BME280;64597;42.664;23.256;2023-11-21T00:41:41;94404.44;;;5.53;68.53
6528;BME280;64597;42.664;23.256;2023-11-21T00:44:07;94395.25;;;5.37;68.10
6528;BME280;64597;42.664;23.256;2023-11-21T00:46:33;94407.69;;;5.42;68.67
6528;BME280;64597;42.664;23.256;2023-11-21T00:48:58;94404.47;;;5.40;69.08
6528;BME280;64597;42.664;23.256;2023-11-21T00:51:23;94400.88;;;5.41;68.75
6528;BME280;64597;42.664;23.256;2023-11-21T00:53:49;94399.84;;;5.42;69.00
6528;BME280;64597;42.664;23.256;2023-11-21T00:56:15;94388.41;;;5.36;69.17
6528;BME280;64597;42.664;23.256;2023-11-21T00:58:41;94376.16;;;5.30;68.75
6528;BME280;64597;42.664;23.256;2023-11-21T01:01:09;94388.00;;;5.39;68.97
6528;BME280;64597;42.664;23.256;2023-11-21T01:03:35;94390.41;;;5.41;68.49
6528;BME280;64597;42.664;23.256;2023-11-21T01:06:00;94388.19;;;5.38;69.11
6528;BME280;64597;42.664;23.256;2023-11-21T01:08:26;94373.91;;;5.40;68.63
6528;BME280;64597;42.664;23.256;2023-11-21T01:10:51;94373.69;;;5.48;68.76
6528;BME280;64597;42.664;23.256;2023-11-21T01:13:16;94380.53;;;5.49;68.13
6528;BME280;64597;42.664;23.256;2023-11-21T01:15:42;94381.97;;;5.45;68.50
6528;BME280;64597;42.664;23.256;2023-11-21T01:18:08;94379.34;;;5.45;68.49
6528;BME280;64597;42.664;23.256;2023-11-21T01:20:34;94391.38;;;5.46;68.06
6528;BME280;64597;42.664;23.256;2023-11-21T01:22:59;94388.78;;;5.40;67.90
6528;BME280;64597;42.664;23.256;2023-11-21T01:25:25;94391.47;;;5.33;67.91
6528;BME280;64597;42.664;23.256;2023-11-21T01:27:51;94392.09;;;5.22;68.14
6528;BME280;64597;42.664;23.256;2023-11-21T01:30:17;94385.66;;;5.25;68.50
6528;BME280;64597;42.664;23.256;2023-11-21T01:32:43;94385.22;;;5.28;68.65
6528;BME280;64597;42.664;23.256;2023-11-21T01:35:09;94381.63;;;5.22;68.46
6528;BME280;64597;42.664;23.256;2023-11-21T01:37:36;94389.88;;;5.19;68.14
6528;BME280;64597;42.664;23.256;2023-11-21T01:40:01;94363.00;;;4.99;68.00
6528;BME280;64597;42.664;23.256;2023-11-21T01:42:27;94391.09;;;5.17;67.89
6528;BME280;64597;42.664;23.256;2023-11-21T01:44:54;94402.16;;;5.12;68.50
6528;BME280;64597;42.664;23.256;2023-11-21T01:47:20;94381.50;;;4.91;68.25
6528;BME280;64597;42.664;23.256;2023-11-21T01:49:46;94377.91;;;4.92;69.07
6528;BME280;64597;42.664;23.256;2023-11-21T01:52:12;94376.88;;;4.93;68.45
6528;BME280;64597;42.664;23.256;2023-11-21T01:54:39;94366.47;;;4.86;68.51
6528;BME280;64597;42.664;23.256;2023-11-21T01:57:05;94374.91;;;4.88;68.88
6528;BME280;64597;42.664;23.256;2023-11-21T01:59:38;94384.47;;;5.01;68.50
6528;BME280;64597;42.664;23.256;2023-11-21T02:02:05;94384.09;;;4.91;68.81
6528;BME280;64597;42.664;23.256;2023-11-21T02:04:33;94384.09;;;4.91;69.25
6528;BME280;64597;42.664;23.256;2023-11-21T02:07:00;94380.50;;;4.79;68.79
6528;BME280;64597;42.664;23.256;2023-11-21T02:09:27;94387.75;;;4.77;69.14
6528;BME280;64597;42.664;23.256;2023-11-21T02:11:53;94380.72;;;4.77;69.15
6528;BME280;64597;42.664;23.256;2023-11-21T02:14:19;94384.31;;;4.83;69.39
6528;BME280;64597;42.664;23.256;2023-11-21T02:16:48;94379.31;;;4.81;69.62
6528;BME280;64597;42.664;23.256;2023-11-21T02:19:18;94378.91;;;4.84;69.61
6528;BME280;64597;42.664;23.256;2023-11-21T02:21:45;94381.53;;;4.84;68.77
6528;BME280;64597;42.664;23.256;2023-11-21T02:24:11;94375.28;;;4.79;68.93
6528;BME280;64597;42.664;23.256;2023-11-21T02:26:36;94379.13;;;4.70;69.31
6528;BME280;64597;42.664;23.256;2023-11-21T02:29:02;94384.34;;;4.70;69.98
6528;BME280;64597;42.664;23.256;2023-11-21T02:31:29;94369.69;;;4.75;69.58
6528;BME280;64597;42.664;23.256;2023-11-21T02:33:55;94373.69;;;4.78;69.37
6528;BME280;64597;42.664;23.256;2023-11-21T02:36:20;94382.34;;;4.72;69.66
6528;BME280;64597;42.664;23.256;2023-11-21T02:38:47;94377.13;;;4.72;69.19
6528;BME280;64597;42.664;23.256;2023-11-21T02:41:12;94385.56;;;4.74;69.93
6528;BME280;64597;42.664;23.256;2023-11-21T02:43:38;94374.91;;;4.69;69.42
6528;BME280;64597;42.664;23.256;2023-11-21T02:46:04;94369.28;;;4.59;70.01
6528;BME280;64597;42.664;23.256;2023-11-21T02:48:29;94346.00;;;4.38;70.20
6528;BME280;64597;42.664;23.256;2023-11-21T02:50:56;94366.09;;;4.50;69.94
6528;BME280;64597;42.664;23.256;2023-11-21T02:53:21;94366.28;;;4.49;69.90
6528;BME280;64597;42.664;23.256;2023-11-21T02:55:47;94364.50;;;4.56;70.48
6528;BME280;64597;42.664;23.256;2023-11-21T02:58:12;94374.31;;;4.60;70.37
6528;BME280;64597;42.664;23.256;2023-11-21T03:00:37;94362.88;;;4.48;70.39
6528;BME280;64597;42.664;23.256;2023-11-21T03:03:05;94361.50;;;4.39;70.64
6528;BME280;64597;42.664;23.256;2023-11-21T03:05:30;94361.88;;;4.43;70.68
6528;BME280;64597;42.664;23.256;2023-11-21T03:07:56;94373.53;;;4.47;70.80
6528;BME280;64597;42.664;23.256;2023-11-21T03:10:22;94364.06;;;4.52;70.83
6528;BME280;64597;42.664;23.256;2023-11-21T03:12:48;94353.63;;;4.46;70.79
6528;BME280;64597;42.664;23.256;2023-11-21T03:15:13;94360.69;;;4.52;70.17
6528;BME280;64597;42.664;23.256;2023-11-21T03:17:39;94365.69;;;4.53;70.87
6528;BME280;64597;42.664;23.256;2023-11-21T03:20:05;94375.31;;;4.53;70.81
6528;BME280;64597;42.664;23.256;2023-11-21T03:22:31;94380.75;;;4.45;70.85
6528;BME280;64597;42.664;23.256;2023-11-21T03:24:56;94381.34;;;4.34;70.03
6528;BME280;64597;42.664;23.256;2023-11-21T03:27:22;94383.75;;;4.29;70.85
6528;BME280;64597;42.664;23.256;2023-11-21T03:29:48;94389.16;;;4.34;71.13
6528;BME280;64597;42.664;23.256;2023-11-21T03:32:13;94388.56;;;4.38;70.19
6528;BME280;64597;42.664;23.256;2023-11-21T03:34:56;94383.94;;;4.34;70.47
6528;BME280;64597;42.664;23.256;2023-11-21T03:37:23;94367.28;;;4.22;71.13
6528;BME280;64597;42.664;23.256;2023-11-21T03:39:53;94381.53;;;4.26;70.99
6528;BME280;64597;42.664;23.256;2023-11-21T03:42:21;94359.28;;;4.23;70.87
6528;BME280;64597;42.664;23.256;2023-11-21T03:44:47;94364.31;;;4.31;71.43
6528;BME280;64597;42.664;23.256;2023-11-21T03:47:12;94355.66;;;4.37;71.36
6528;BME280;64597;42.664;23.256;2023-11-21T03:49:38;94337.78;;;4.28;71.39
6528;BME280;64597;42.664;23.256;2023-11-21T03:52:03;94355.25;;;4.40;71.35
6528;BME280;64597;42.664;23.256;2023-11-21T03:54:29;94357.66;;;4.42;71.12
6528;BME280;64597;42.664;23.256;2023-11-21T03:56:54;94349.44;;;4.45;71.00
6528;BME280;64597;42.664;23.256;2023-11-21T03:59:20;94350.41;;;4.44;70.55
6528;BME280;64597;42.664;23.256;2023-11-21T04:01:45;94353.25;;;4.42;70.52
6528;BME280;64597;42.664;23.256;2023-11-21T04:04:11;94350.44;;;4.37;70.88
6528;BME280;64597;42.664;23.256;2023-11-21T04:06:37;94350.44;;;4.31;70.58
6528;BME280;64597;42.664;23.256;2023-11-21T04:09:03;94350.84;;;4.28;70.89
6528;BME280;64597;42.664;23.256;2023-11-21T04:11:30;94348.03;;;4.29;71.75
6528;BME280;64597;42.664;23.256;2023-11-21T04:13:55;94348.81;;;4.30;70.83
6528;BME280;64597;42.664;23.256;2023-11-21T04:16:21;94341.59;;;4.32;70.85
6528;BME280;64597;42.664;23.256;2023-11-21T04:18:46;94340.59;;;4.33;71.72
6528;BME280;64597;42.664;23.256;2023-11-21T04:21:12;94344.00;;;4.40;71.71
6528;BME280;64597;42.664;23.256;2023-11-21T04:23:37;94342.81;;;4.36;70.76
6528;BME280;64597;42.664;23.256;2023-11-21T04:26:04;94347.63;;;4.39;70.67
6528;BME280;64597;42.664;23.256;2023-11-21T04:28:29;94346.00;;;4.38;70.83
6528;BME280;64597;42.664;23.256;2023-11-21T04:30:57;94334.56;;;4.26;71.41
6528;BME280;64597;42.664;23.256;2023-11-21T04:33:22;94353.66;;;4.39;70.50
6528;BME280;64597;42.664;23.256;2023-11-21T04:35:48;94360.47;;;4.34;71.58
6528;BME280;64597;42.664;23.256;2023-11-21T04:38:13;94355.88;;;4.23;71.21
6528;BME280;64597;42.664;23.256;2023-11-21T04:40:39;94348.03;;;4.09;71.75
6528;BME280;64597;42.664;23.256;2023-11-21T04:43:04;94347.22;;;4.15;71.59
6528;BME280;64597;42.664;23.256;2023-11-21T04:45:30;94345.44;;;4.23;71.46
6528;BME280;64597;42.664;23.256;2023-11-21T04:47:55;94353.44;;;4.28;71.67
6528;BME280;64597;42.664;23.256;2023-11-21T04:50:21;94340.41;;;4.14;72.37
6528;BME280;64597;42.664;23.256;2023-11-21T04:52:47;94332.38;;;4.09;71.68
6528;BME280;64597;42.664;23.256;2023-11-21T04:55:12;94368.09;;;4.29;71.52
6528;BME280;64597;42.664;23.256;2023-11-21T04:57:38;94363.69;;;4.29;72.40
6528;BME280;64597;42.664;23.256;2023-11-21T05:00:07;94369.31;;;4.33;72.40
6528;BME280;64597;42.664;23.256;2023-11-21T05:02:33;94369.09;;;4.34;71.39
6528;BME280;64597;42.664;23.256;2023-11-21T05:05:02;94374.53;;;4.33;71.76
6528;BME280;64597;42.664;23.256;2023-11-21T05:07:27;94333.78;;;4.18;72.40
6528;BME280;64597;42.664;23.256;2023-11-21T05:09:55;94358.88;;;4.39;72.24
6528;BME280;64597;42.664;23.256;2023-11-21T05:12:25;94351.22;;;4.44;71.65
6528;BME280;64597;42.664;23.256;2023-11-21T05:14:51;94346.00;;;4.44;71.16
6528;BME280;64597;42.664;23.256;2023-11-21T05:17:16;94366.09;;;4.44;71.44
6528;BME280;64597;42.664;23.256;2023-11-21T05:19:42;94349.22;;;4.46;71.89
6528;BME280;64597;42.664;23.256;2023-11-21T05:22:08;94359.06;;;4.51;71.80
6528;BME280;64597;42.664;23.256;2023-11-21T05:24:33;94357.66;;;4.55;70.88
6528;BME280;64597;42.664;23.256;2023-11-21T05:27:00;94353.25;;;4.55;71.00
6528;BME280;64597;42.664;23.256;2023-11-21T05:29:27;94363.25;;;4.58;70.73
6528;BME280;64597;42.664;23.256;2023-11-21T05:31:53;94350.63;;;4.49;72.03
6528;BME280;64597;42.664;23.256;2023-11-21T05:34:19;94361.25;;;4.60;71.19
6528;BME280;64597;42.664;23.256;2023-11-21T05:36:46;94358.63;;;4.60;70.89
6528;BME280;64597;42.664;23.256;2023-11-21T05:39:11;94364.06;;;4.59;71.70
6528;BME280;64597;42.664;23.256;2023-11-21T05:41:37;94369.50;;;4.57;71.38
6528;BME280;64597;42.664;23.256;2023-11-21T05:44:02;94353.25;;;4.49;70.85
6528;BME280;64597;42.664;23.256;2023-11-21T05:46:28;94365.88;;;4.65;71.30
6528;BME280;64597;42.664;23.256;2023-11-21T05:48:53;94362.44;;;4.71;71.45
6528;BME280;64597;42.664;23.256;2023-11-21T05:51:20;94359.03;;;4.70;70.70
6528;BME280;64597;42.664;23.256;2023-11-21T05:53:45;94330.75;;;4.61;70.72
6528;BME280;64597;42.664;23.256;2023-11-21T05:56:11;94290.22;;;4.39;71.21
6528;BME280;64597;42.664;23.256;2023-11-21T05:58:37;94357.59;;;4.81;70.73
6528;BME280;64597;42.664;23.256;2023-11-21T06:01:05;94345.97;;;4.77;71.41
6528;BME280;64597;42.664;23.256;2023-11-21T06:03:33;94363.25;;;4.84;71.03
6528;BME280;64597;42.664;23.256;2023-11-21T06:05:58;94363.25;;;4.84;70.64
6528;BME280;64597;42.664;23.256;2023-11-21T06:08:24;94368.66;;;4.89;71.17
6528;BME280;64597;42.664;23.256;2023-11-21T06:10:52;94357.38;;;4.95;71.12
6528;BME280;64597;42.664;23.256;2023-11-21T06:13:17;94368.06;;;4.87;70.52
6528;BME280;64597;42.664;23.256;2023-11-21T06:15:50;94376.66;;;5.01;71.07
6528;BME280;64597;42.664;23.256;2023-11-21T06:18:16;94379.63;;;5.11;71.11
6528;BME280;64597;42.664;23.256;2023-11-21T06:20:45;94371.59;;;5.19;70.37
6528;BME280;64597;42.664;23.256;2023-11-21T06:23:10;94383.25;;;5.17;70.23
6528;BME280;64597;42.664;23.256;2023-11-21T06:25:36;94374.00;;;5.14;70.15
6528;BME280;64597;42.664;23.256;2023-11-21T06:28:02;94378.03;;;5.10;71.02
6528;BME280;64597;42.664;23.256;2023-11-21T06:30:27;94385.25;;;5.21;70.49
6528;BME280;64597;42.664;23.256;2023-11-21T06:32:54;94370.94;;;5.30;70.33
6528;BME280;64597;42.664;23.256;2023-11-21T06:35:20;94364.28;;;5.34;69.82
6528;BME280;64597;42.664;23.256;2023-11-21T06:37:46;94379.72;;;5.49;69.88
6528;BME280;64597;42.664;23.256;2023-11-21T06:40:17;94389.13;;;5.56;70.00
6528;BME280;64597;42.664;23.256;2023-11-21T06:42:43;94391.03;;;5.87;69.77
6528;BME280;64597;42.664;23.256;2023-11-21T06:45:10;94387.31;;;6.01;69.21
6528;BME280;64597;42.664;23.256;2023-11-21T06:47:36;94403.06;;;6.26;68.06
6528;BME280;64597;42.664;23.256;2023-11-21T06:50:01;94396.59;;;6.59;68.36
6528;BME280;64597;42.664;23.256;2023-11-21T06:52:27;94402.94;;;6.95;67.61
6528;BME280;64597;42.664;23.256;2023-11-21T06:54:52;94408.53;;;7.23;66.71
6528;BME280;64597;42.664;23.256;2023-11-21T06:57:18;94396.94;;;7.48;65.74
6528;BME280;64597;42.664;23.256;2023-11-21T06:59:44;94395.69;;;7.69;64.92
6528;BME280;64597;42.664;23.256;2023-11-21T07:02:09;94377.75;;;7.84;63.96
6528;BME280;64597;42.664;23.256;2023-11-21T07:04:38;94388.75;;;7.93;63.40
6528;BME280;64597;42.664;23.256;2023-11-21T07:07:04;94383.28;;;8.06;62.05
6528;BME280;64597;42.664;23.256;2023-11-21T07:09:30;94361.78;;;7.97;62.05
6528;BME280;64597;42.664;23.256;2023-11-21T07:11:56;94381.34;;;8.31;61.80
6528;BME280;64597;42.664;23.256;2023-11-21T07:14:21;94375.44;;;8.36;60.60
6528;BME280;64597;42.664;23.256;2023-11-21T07:16:47;94353.03;;;8.33;60.78
6528;BME280;64597;42.664;23.256;2023-11-21T07:19:13;94363.03;;;8.54;60.50
6528;BME280;64597;42.664;23.256;2023-11-21T07:21:39;94370.00;;;8.60;59.77
6528;BME280;64597;42.664;23.256;2023-11-21T07:24:05;94378.66;;;8.61;59.75
6528;BME280;64597;42.664;23.256;2023-11-21T07:26:35;94377.75;;;8.55;59.72
6528;BME280;64597;42.664;23.256;2023-11-21T07:29:01;94382.00;;;8.56;59.24
6528;BME280;64597;42.664;23.256;2023-11-21T07:31:31;94361.66;;;8.52;59.84
6528;BME280;64597;42.664;23.256;2023-11-21T07:33:59;94390.22;;;8.71;60.30
6528;BME280;64597;42.664;23.256;2023-11-21T07:36:24;94389.56;;;8.76;59.40
6528;BME280;64597;42.664;23.256;2023-11-21T07:38:50;94377.78;;;8.78;59.20
6528;BME280;64597;42.664;23.256;2023-11-21T07:41:17;94382.72;;;8.86;58.95
6528;BME280;64597;42.664;23.256;2023-11-21T07:43:43;94374.59;;;8.76;59.10
6528;BME280;64597;42.664;23.256;2023-11-21T07:46:09;94381.31;;;8.84;59.76
6528;BME280;64597;42.664;23.256;2023-11-21T07:48:35;94376.16;;;8.77;59.30
6528;BME280;64597;42.664;23.256;2023-11-21T07:51:02;94366.91;;;8.63;58.43
6528;BME280;64597;42.664;23.256;2023-11-21T07:53:32;94367.63;;;8.70;59.21
6528;BME280;64597;42.664;23.256;2023-11-21T07:56:00;94361.88;;;8.73;59.02
6528;BME280;64597;42.664;23.256;2023-11-21T07:58:27;94367.16;;;8.85;59.15
6528;BME280;64597;42.664;23.256;2023-11-21T08:00:56;94363.72;;;8.84;59.28
6528;BME280;64597;42.664;23.256;2023-11-21T08:03:21;94364.31;;;8.86;59.39
6528;BME280;64597;42.664;23.256;2023-11-21T08:05:47;94362.91;;;8.95;59.56
6528;BME280;64597;42.664;23.256;2023-11-21T08:08:12;94365.22;;;9.03;58.73
6528;BME280;64597;42.664;23.256;2023-11-21T08:10:38;94367.06;;;9.03;58.38
6528;BME280;64597;42.664;23.256;2023-11-21T08:13:07;94355.75;;;8.91;58.93
6528;BME280;64597;42.664;23.256;2023-11-21T08:15:34;94360.53;;;9.17;58.80
6528;BME280;64597;42.664;23.256;2023-11-21T08:18:02;94358.56;;;9.36;58.43
6528;BME280;64597;42.664;23.256;2023-11-21T08:20:27;94355.78;;;9.54;58.27
6528;BME280;64597;42.664;23.256;2023-11-21T08:22:53;94351.50;;;9.64;57.31
6528;BME280;64597;42.664;23.256;2023-11-21T08:25:19;94358.81;;;9.74;57.45
6528;BME280;64597;42.664;23.256;2023-11-21T08:27:45;94355.34;;;9.85;56.90
6528;BME280;64597;42.664;23.256;2023-11-21T08:30:11;94354.72;;;9.94;57.05
6528;BME280;64597;42.664;23.256;2023-11-21T08:32:39;94358.34;;;10.05;56.24
6528;BME280;64597;42.664;23.256;2023-11-21T08:35:04;94351.69;;;10.14;56.85
6528;BME280;64597;42.664;23.256;2023-11-21T08:37:31;94353.78;;;10.29;55.57
6528;BME280;64597;42.664;23.256;2023-11-21T08:39:58;94356.97;;;10.31;55.13
6528;BME280;64597;42.664;23.256;2023-11-21T08:42:27;94350.00;;;10.36;55.38
6528;BME280;64597;42.664;23.256;2023-11-21T08:44:55;94341.00;;;10.21;55.24
6528;BME280;64597;42.664;23.256;2023-11-21T08:47:23;94348.88;;;10.32;54.39
6528;BME280;64597;42.664;23.256;2023-11-21T08:49:50;94346.06;;;10.39;54.53
6528;BME280;64597;42.664;23.256;2023-11-21T08:52:17;94344.31;;;10.44;54.52
6528;BME280;64597;42.664;23.256;2023-11-21T08:54:43;94328.69;;;10.54;54.98
6528;BME280;64597;42.664;23.256;2023-11-21T08:57:10;94324.28;;;10.76;53.92
6528;BME280;64597;42.664;23.256;2023-11-21T08:59:36;94330.16;;;11.00;53.16
6528;BME280;64597;42.664;23.256;2023-11-21T09:02:01;94313.75;;;11.15;53.32
6528;BME280;64597;42.664;23.256;2023-11-21T09:04:27;94301.94;;;11.22;53.15
6528;BME280;64597;42.664;23.256;2023-11-21T09:06:52;94305.47;;;11.28;52.73
6528;BME280;64597;42.664;23.256;2023-11-21T09:09:18;94295.53;;;11.35;52.81
6528;BME280;64597;42.664;23.256;2023-11-21T09:11:44;94292.84;;;11.30;52.30
6528;BME280;64597;42.664;23.256;2023-11-21T09:14:11;94295.13;;;11.26;52.30
6528;BME280;64597;42.664;23.256;2023-11-21T09:16:38;94277.34;;;11.17;52.06
6528;BME280;64597;42.664;23.256;2023-11-21T09:19:04;94281.28;;;11.14;52.11
6528;BME280;64597;42.664;23.256;2023-11-21T09:21:30;94252.66;;;11.06;51.56
6528;BME280;64597;42.664;23.256;2023-11-21T09:23:56;94266.25;;;11.15;52.01
6528;BME280;64597;42.664;23.256;2023-11-21T09:26:21;94238.47;;;11.07;51.99
6528;BME280;64597;42.664;23.256;2023-11-21T09:28:47;94256.38;;;11.27;51.81
6528;BME280;64597;42.664;23.256;2023-11-21T09:31:13;94244.28;;;11.31;52.28
6528;BME280;64597;42.664;23.256;2023-11-21T09:33:42;94229.06;;;11.38;52.18
6528;BME280;64597;42.664;23.256;2023-11-21T09:36:11;94222.06;;;11.48;51.99
6528;BME280;64597;42.664;23.256;2023-11-21T09:38:38;94224.59;;;11.65;52.02
6528;BME280;64597;42.664;23.256;2023-11-21T09:41:49;94227.28;;;11.92;51.57
6528;BME280;64597;42.664;23.256;2023-11-21T09:44:38;94211.53;;;12.02;51.27
6528;BME280;64597;42.664;23.256;2023-11-21T09:47:07;94206.09;;;12.18;51.02
6528;BME280;64597;42.664;23.256;2023-11-21T09:49:37;94201.88;;;12.22;50.11
6528;BME280;64597;42.664;23.256;2023-11-21T09:52:04;94205.59;;;12.21;50.13
6528;BME280;64597;42.664;23.256;2023-11-21T09:54:31;94189.25;;;12.24;49.74
6528;BME280;64597;42.664;23.256;2023-11-21T09:57:00;94181.88;;;12.31;49.41
6528;BME280;64597;42.664;23.256;2023-11-21T09:59:30;94182.75;;;12.47;49.46
6528;BME280;64597;42.664;23.256;2023-11-21T10:01:57;94183.13;;;12.61;48.70
6528;BME280;64597;42.664;23.256;2023-11-21T10:04:23;94177.34;;;12.69;48.30
6528;BME280;64597;42.664;23.256;2023-11-21T10:06:50;94152.75;;;12.68;48.42
6528;BME280;64597;42.664;23.256;2023-11-21T10:09:16;94171.06;;;12.80;47.83
6528;BME280;64597;42.664;23.256;2023-11-21T10:11:42;94165.25;;;12.83;47.66
6528;BME280;64597;42.664;23.256;2023-11-21T10:14:12;94155.53;;;12.98;47.58
6528;BME280;64597;42.664;23.256;2023-11-21T10:16:40;94147.34;;;13.00;47.58
6528;BME280;64597;42.664;23.256;2023-11-21T10:19:10;94156.44;;;13.14;47.36
6528;BME280;64597;42.664;23.256;2023-11-21T10:21:36;94141.28;;;13.04;47.19
6528;BME280;64597;42.664;23.256;2023-11-21T10:24:03;94141.28;;;13.04;46.57
6528;BME280;64597;42.664;23.256;2023-11-21T10:26:29;94149.22;;;13.04;47.47
6528;BME280;64597;42.664;23.256;2023-11-21T10:29:01;94153.75;;;13.09;47.82
6528;BME280;64597;42.664;23.256;2023-11-21T10:31:31;94135.94;;;12.94;47.20
6528;BME280;64597;42.664;23.256;2023-11-21T10:34:16;94153.47;;;13.05;47.67
6528;BME280;64597;42.664;23.256;2023-11-21T10:36:42;94126.63;;;12.82;47.12
6528;BME280;64597;42.664;23.256;2023-11-21T10:39:08;94134.66;;;13.02;47.69
6528;BME280;64597;42.664;23.256;2023-11-21T10:41:35;94147.88;;;13.02;47.30
6528;BME280;64597;42.664;23.256;2023-11-21T10:44:01;94142.56;;;12.92;47.37
6528;BME280;64597;42.664;23.256;2023-11-21T10:46:29;94142.03;;;12.90;48.06
6528;BME280;64597;42.664;23.256;2023-11-21T10:48:55;94136.72;;;12.90;48.17
6528;BME280;64597;42.664;23.256;2023-11-21T10:51:21;94129.84;;;12.89;47.59
6528;BME280;64597;42.664;23.256;2023-11-21T10:53:47;94125.03;;;12.81;47.53
6528;BME280;64597;42.664;23.256;2023-11-21T10:56:18;94121.84;;;12.79;48.18
6528;BME280;64597;42.664;23.256;2023-11-21T10:58:48;94115.22;;;12.71;48.36
6528;BME280;64597;42.664;23.256;2023-11-21T11:01:17;94112.03;;;12.69;47.97
6528;BME280;64597;42.664;23.256;2023-11-21T11:03:44;94115.41;;;12.60;48.23
6528;BME280;64597;42.664;23.256;2023-11-21T11:06:10;94114.91;;;12.68;48.57
6528;BME280;64597;42.664;23.256;2023-11-21T11:08:38;94105.41;;;12.67;48.73
6528;BME280;64597;42.664;23.256;2023-11-21T11:11:07;94093.72;;;12.53;48.48
6528;BME280;64597;42.664;23.256;2023-11-21T11:13:33;94108.81;;;12.57;48.26
6528;BME280;64597;42.664;23.256;2023-11-21T11:15:59;94086.25;;;12.45;48.34
6528;BME280;64597;42.664;23.256;2023-11-21T11:18:29;94076.69;;;12.33;48.92
6528;BME280;64597;42.664;23.256;2023-11-21T11:24:11;94081.00;;;12.50;49.06
6528;BME280;64597;42.664;23.256;2023-11-21T11:26:53;94081.50;;;12.47;48.86
6528;BME280;64597;42.664;23.256;2023-11-21T11:37:09;94076.50;;;12.50;49.11
6528;BME280;64597;42.664;23.256;2023-11-21T11:39:39;94071.44;;;12.43;49.61
6528;BME280;64597;42.664;23.256;2023-11-21T11:42:17;94080.44;;;12.43;50.04
6528;BME280;64597;42.664;23.256;2023-11-21T11:47:24;94082.28;;;12.42;51.48
6528;BME280;64597;42.664;23.256;2023-11-21T11:52:50;94078.84;;;12.41;51.26
6528;BME280;64597;42.664;23.256;2023-11-21T11:55:19;94071.66;;;12.37;51.96
6528;BME280;64597;42.664;23.256;2023-11-21T11:57:52;94076.91;;;12.27;52.86
6528;BME280;64597;42.664;23.256;2023-11-21T12:00:40;94079.75;;;12.15;53.09
6528;BME280;64597;42.664;23.256;2023-11-21T12:03:07;94087.69;;;12.15;53.05
6528;BME280;64597;42.664;23.256;2023-11-21T12:05:34;94083.44;;;12.14;53.05
6528;BME280;64597;42.664;23.256;2023-11-21T12:08:04;94077.59;;;12.07;53.59
6528;BME280;64597;42.664;23.256;2023-11-21T12:10:34;94084.16;;;12.00;54.06
6528;BME280;64597;42.664;23.256;2023-11-21T12:13:06;94089.91;;;11.92;54.92
6528;BME280;64597;42.664;23.256;2023-11-21T12:15:33;94093.59;;;11.91;54.50
6528;BME280;64597;42.664;23.256;2023-11-21T12:18:00;94095.41;;;11.85;54.21
6528;BME280;64597;42.664;23.256;2023-11-21T12:20:27;94054.28;;;11.63;55.12
6528;BME280;64597;42.664;23.256;2023-11-21T12:22:59;94070.00;;;11.79;55.55
6528;BME280;64597;42.664;23.256;2023-11-21T12:25:27;94072.03;;;11.67;55.89
6528;BME280;64597;42.664;23.256;2023-11-21T12:28:01;94075.75;;;11.71;56.18
6528;BME280;64597;42.664;23.256;2023-11-21T12:30:29;94082.34;;;11.74;56.51
6528;BME280;64597;42.664;23.256;2023-11-21T12:32:56;94093.16;;;11.67;57.63
6528;BME280;64597;42.664;23.256;2023-11-21T12:35:25;94090.94;;;11.59;58.08
6528;BME280;64597;42.664;23.256;2023-11-21T12:37:52;94086.97;;;11.56;58.27
6528;BME280;64597;42.664;23.256;2023-11-21T12:40:19;94074.78;;;11.55;57.95
6528;BME280;64597;42.664;23.256;2023-11-21T12:42:45;94065.84;;;11.56;57.72
6528;BME280;64597;42.664;23.256;2023-11-21T12:45:18;94068.22;;;11.58;57.29
6528;BME280;64597;42.664;23.256;2023-11-21T12:47:48;94070.25;;;11.51;57.67
6528;BME280;64597;42.664;23.256;2023-11-21T12:50:17;94043.56;;;11.42;58.03
6528;BME280;64597;42.664;23.256;2023-11-21T12:52:47;94038.97;;;11.33;57.90
6528;BME280;64597;42.664;23.256;2023-11-21T12:55:15;94059.13;;;11.44;57.75
6528;BME280;64597;42.664;23.256;2023-11-21T12:57:44;94040.41;;;11.45;57.78
6528;BME280;64597;42.664;23.256;2023-11-21T13:00:12;94051.13;;;11.34;57.55
6528;BME280;64597;42.664;23.256;2023-11-21T13:02:41;94039.75;;;11.28;57.54
6528;BME280;64597;42.664;23.256;2023-11-21T13:05:08;94037.88;;;11.29;57.24
6528;BME280;64597;42.664;23.256;2023-11-21T13:07:44;94030.44;;;11.21;57.31
6528;BME280;64597;42.664;23.256;2023-11-21T13:10:13;94038.16;;;11.27;57.41
6528;BME280;64597;42.664;23.256;2023-11-21T13:12:45;94035.22;;;11.24;57.76
6528;BME280;64597;42.664;23.256;2023-11-21T13:15:14;94044.38;;;11.16;57.82
6528;BME280;64597;42.664;23.256;2023-11-21T13:17:43;94038.25;;;11.11;58.08
6528;BME280;64597;42.664;23.256;2023-11-21T13:20:12;94046.22;;;11.16;57.68
6528;BME280;64597;42.664;23.256;2023-11-21T13:22:56;94042.53;;;11.17;57.46